Time;durP1;ratioP1;P1;durP2;ratioP2;P2;SDS_P1;SDS_P2;PMS_P1;PMS_P2;Temp;Humidity;BMP_temperature;BMP_pressure;BME280_temperature;BME280_humidity;BME280_pressure;Samples;Min_cycle;Max_cycle;Signal;HPM_P1;HPM_P2
2021/09/02 00:00:35;;;;;;;7.67;6.27;;;19.40;49.60;;;;;;5014419;28;20545;-89
2021/09/02 00:03:05;;;;;;;8.70;6.47;;;19.20;50.80;;;;;;5015784;28;20944;-89
2021/09/02 00:05:32;;;;;;;13.27;6.80;;;19.50;50.60;;;;;;5014180;28;20856;-89
2021/09/02 00:07:59;;;;;;;10.43;6.30;;;19.50;50.30;;;;;;5014278;28;20525;-89
2021/09/02 00:10:28;;;;;;;10.30;7.13;;;19.50;49.80;;;;;;5013980;28;20527;-89
2021/09/02 00:12:58;;;;;;;7.60;5.90;;;19.20;47.10;;;;;;5015298;28;20533;-89
2021/09/02 00:15:30;;;;;;;11.20;7.30;;;18.60;50.40;;;;;;5015189;28;20883;-89
2021/09/02 00:17:57;;;;;;;11.90;6.40;;;19.00;50.80;;;;;;5018529;28;20450;-89
2021/09/02 00:20:24;;;;;;;8.50;5.77;;;19.30;51.10;;;;;;5018209;28;20887;-89
2021/09/02 00:22:53;;;;;;;8.13;6.00;;;19.60;50.00;;;;;;5018339;28;20501;-89
2021/09/02 00:25:20;;;;;;;11.70;5.90;;;19.70;49.30;;;;;;5017116;28;20875;-89
2021/09/02 00:27:47;;;;;;;10.40;5.90;;;19.60;50.00;;;;;;5016954;28;20465;-89
2021/09/02 00:30:14;;;;;;;8.87;6.40;;;19.70;48.90;;;;;;5017334;28;20458;-88
2021/09/02 00:32:44;;;;;;;8.23;5.80;;;19.60;49.40;;;;;;5016744;28;20523;-89
2021/09/02 00:35:11;;;;;;;13.63;6.20;;;19.70;50.00;;;;;;5017348;28;20473;-89
2021/09/02 00:37:38;;;;;;;9.13;5.67;;;19.60;49.60;;;;;;5017238;28;20881;-89
2021/09/02 00:40:06;;;;;;;7.90;5.70;;;19.50;49.70;;;;;;5016905;28;20450;-89
2021/09/02 00:42:33;;;;;;;9.37;6.23;;;19.40;49.80;;;;;;5017071;28;20833;-89
2021/09/02 00:45:00;;;;;;;10.33;6.53;;;19.50;50.30;;;;;;5028291;28;20453;-88
2021/09/02 00:47:27;;;;;;;7.10;5.20;;;19.60;48.80;;;;;;5031132;28;20445;-89
2021/09/02 00:49:56;;;;;;;10.70;6.10;;;19.20;51.00;;;;;;5016892;28;20986;-89
2021/09/02 00:52:26;;;;;;;9.07;5.80;;;19.30;50.10;;;;;;5016770;28;20466;-89
2021/09/02 00:54:55;;;;;;;7.43;5.50;;;19.40;49.60;;;;;;5017268;28;20548;-89
2021/09/02 00:57:25;;;;;;;9.83;6.03;;;19.20;48.00;;;;;;5016915;28;20509;-89
2021/09/02 00:59:53;;;;;;;8.40;6.00;;;18.70;50.70;;;;;;5017324;28;20553;-88
2021/09/02 01:02:20;;;;;;;7.73;5.77;;;18.80;49.30;;;;;;5017472;28;20482;-89
2021/09/02 01:04:48;;;;;;;9.53;6.23;;;18.90;50.50;;;;;;5016834;28;20465;-89
2021/09/02 01:07:16;;;;;;;8.50;6.00;;;18.60;48.00;;;;;;5017406;28;20439;-89
2021/09/02 01:09:44;;;;;;;9.97;6.70;;;18.50;52.00;;;;;;5017034;28;20465;-89
2021/09/02 01:12:33;;;;;;;8.77;6.27;;;18.70;50.80;;;;;;5015812;28;20470;-89
2021/09/02 01:15:03;;;;;;;8.50;6.20;;;18.80;50.60;;;;;;5012324;28;20458;-89
2021/09/02 01:17:30;;;;;;;9.63;6.70;;;18.90;50.80;;;;;;5017072;28;20916;-88
2021/09/02 01:19:57;;;;;;;11.00;6.13;;;18.90;51.40;;;;;;5016338;28;20972;-89
2021/09/02 01:22:26;;;;;;;10.37;6.40;;;19.10;49.60;;;;;;5015940;28;20580;-89
2021/09/02 01:24:55;;;;;;;8.40;5.73;;;19.20;50.90;;;;;;5033154;28;20476;-88
2021/09/02 01:27:26;;;;;;;10.27;7.40;;;19.20;50.50;;;;;;5030917;28;20469;-89
2021/09/02 01:29:54;;;;;;;9.27;6.90;;;18.80;47.60;;;;;;5016439;28;20484;-89
2021/09/02 01:32:22;;;;;;;7.93;5.97;;;18.20;47.40;;;;;;5016077;28;20586;-89
2021/09/02 01:34:49;;;;;;;11.23;6.60;;;17.90;48.90;;;;;;5016484;28;21031;-89
2021/09/02 01:37:16;;;;;;;9.57;6.20;;;18.00;49.90;;;;;;5028745;28;20509;-89
2021/09/02 01:39:43;;;;;;;9.20;6.00;;;18.10;51.20;;;;;;5021785;28;20486;-89
2021/09/02 01:42:14;;;;;;;7.83;5.93;;;18.40;51.80;;;;;;5017588;28;20497;-89
2021/09/02 01:44:42;;;;;;;13.40;6.13;;;18.50;51.10;;;;;;5017718;28;20450;-89
2021/09/02 01:47:23;;;;;;;9.63;6.47;;;18.80;51.70;;;;;;5015859;28;20480;-89
2021/09/02 01:49:51;;;;;;;9.30;6.60;;;18.50;50.00;;;;;;5015981;28;20598;-89
2021/09/02 01:52:18;;;;;;;14.30;6.50;;;18.60;50.20;;;;;;5016085;28;20462;-88
2021/09/02 01:54:45;;;;;;;7.30;5.47;;;18.60;50.80;;;;;;5016028;28;21006;-89
2021/09/02 01:57:16;;;;;;;7.87;5.93;;;18.60;49.60;;;;;;5016167;28;20485;-89
2021/09/02 01:59:43;;;;;;;10.13;6.13;;;18.70;50.80;;;;;;5016319;28;20426;-89
2021/09/02 02:02:10;;;;;;;7.30;5.70;;;18.70;51.10;;;;;;5016083;28;20487;-89
2021/09/02 02:04:37;;;;;;;9.73;5.73;;;18.80;50.60;;;;;;5037983;28;20454;-89
2021/09/02 02:07:06;;;;;;;9.00;5.67;;;18.90;50.80;;;;;;5025362;28;20453;-89
2021/09/02 02:09:33;;;;;;;8.53;5.10;;;18.90;50.70;;;;;;5016311;28;20458;-89
2021/09/02 02:12:00;;;;;;;9.17;6.47;;;18.70;49.30;;;;;;5022209;28;20502;-89
2021/09/02 02:14:28;;;;;;;9.43;5.93;;;18.50;50.00;;;;;;5016478;28;20446;-89
2021/09/02 02:16:55;;;;;;;11.10;5.07;;;18.60;51.20;;;;;;5015979;28;20474;-89
2021/09/02 02:19:22;;;;;;;8.60;7.10;;;18.40;50.90;;;;;;5016546;28;20501;-89
2021/09/02 02:21:49;;;;;;;9.77;5.93;;;18.20;46.20;;;;;;5014918;28;20505;-89
2021/09/02 02:24:16;;;;;;;8.53;6.00;;;17.80;52.00;;;;;;5015183;28;20454;-89
2021/09/02 02:26:43;;;;;;;11.70;6.67;;;18.00;52.20;;;;;;5014562;28;20446;-89
2021/09/02 02:29:10;;;;;;;9.40;6.00;;;18.20;51.60;;;;;;5014861;28;20434;-89
2021/09/02 02:31:38;;;;;;;8.10;6.40;;;18.40;51.80;;;;;;5014478;28;20493;-89
2021/09/02 02:34:05;;;;;;;8.13;5.67;;;18.40;48.50;;;;;;5015011;28;20493;-89
2021/09/02 02:36:32;;;;;;;7.60;6.10;;;18.40;50.50;;;;;;5014456;28;20541;-89
2021/09/02 02:38:59;;;;;;;7.60;5.70;;;18.40;51.20;;;;;;5013917;28;20791;-89
2021/09/02 02:41:25;;;;;;;6.93;5.37;;;18.60;51.50;;;;;;5014394;28;20493;-89
2021/09/02 02:43:54;;;;;;;7.43;5.87;;;18.60;50.80;;;;;;5016145;28;20955;-89
2021/09/02 02:46:21;;;;;;;6.47;4.90;;;18.50;50.50;;;;;;5016486;28;20833;-89
2021/09/02 02:48:50;;;;;;;12.03;6.50;;;18.50;48.80;;;;;;5015961;28;20508;-89
2021/09/02 02:51:17;;;;;;;8.90;6.67;;;17.80;49.20;;;;;;5015007;28;20466;-89
2021/09/02 02:53:46;;;;;;;12.37;8.13;;;17.50;49.50;;;;;;5014196;28;20475;-89
2021/09/02 02:56:13;;;;;;;9.10;6.37;;;17.00;46.60;;;;;;5014393;28;20430;-89
2021/09/02 02:58:41;;;;;;;26.93;6.57;;;17.20;52.20;;;;;;5015074;28;20461;-89
2021/09/02 03:01:08;;;;;;;8.67;6.27;;;17.40;49.60;;;;;;5020242;28;20516;-89
2021/09/02 03:03:34;;;;;;;9.87;7.27;;;17.10;48.40;;;;;;5035473;28;20439;-89
2021/09/02 03:06:03;;;;;;;9.23;6.63;;;16.60;52.20;;;;;;5035465;28;20453;-89
2021/09/02 03:08:30;;;;;;;8.07;5.43;;;16.90;52.70;;;;;;5035876;28;20474;-88
2021/09/02 03:10:57;;;;;;;10.10;6.60;;;17.30;53.60;;;;;;5035637;28;21105;-89
2021/09/02 03:13:26;;;;;;;9.10;6.93;;;17.20;47.90;;;;;;5035135;28;20434;-88
2021/09/02 03:15:53;;;;;;;15.43;6.80;;;17.00;51.80;;;;;;5035568;28;20441;-88
2021/09/02 03:18:20;;;;;;;8.80;6.70;;;17.10;52.30;;;;;;5025166;28;20523;-88
2021/09/02 03:20:46;;;;;;;9.23;6.03;;;16.90;51.80;;;;;;5015432;28;20477;-89
2021/09/02 03:23:15;;;;;;;7.43;6.00;;;16.70;49.80;;;;;;5015647;28;20484;-89
2021/09/02 03:25:42;;;;;;;9.10;6.70;;;17.10;53.70;;;;;;5015202;28;20476;-89
2021/09/02 03:28:09;;;;;;;10.63;8.00;;;17.40;53.10;;;;;;5014438;28;20524;-89
2021/09/02 03:30:36;;;;;;;13.00;7.43;;;17.20;48.70;;;;;;5014333;28;20519;-89
2021/09/02 03:33:04;;;;;;;7.73;6.40;;;17.20;51.50;;;;;;5014240;28;20533;-89
2021/09/02 03:35:31;;;;;;;7.20;5.73;;;17.40;51.90;;;;;;5014215;28;21014;-89
2021/09/02 03:37:58;;;;;;;10.90;5.53;;;17.70;52.80;;;;;;5013911;28;20531;-89
2021/09/02 03:40:26;;;;;;;9.80;6.17;;;18.00;52.80;;;;;;5014613;28;20537;-89
2021/09/02 03:42:53;;;;;;;11.60;6.70;;;18.00;52.00;;;;;;5013561;28;20539;-89
2021/09/02 03:45:20;;;;;;;8.73;5.97;;;18.00;49.90;;;;;;5013345;28;20453;-89
2021/09/02 03:47:49;;;;;;;8.40;6.40;;;17.40;49.30;;;;;;5014138;28;20474;-89
2021/09/02 03:50:16;;;;;;;8.90;5.90;;;17.10;50.90;;;;;;5013287;28;20556;-89
2021/09/02 03:52:47;;;;;;;7.17;5.57;;;17.40;52.60;;;;;;5013203;28;20466;-89
2021/09/02 03:55:14;;;;;;;8.83;6.40;;;17.50;51.90;;;;;;5014083;28;20472;-89
2021/09/02 03:57:44;;;;;;;7.97;5.57;;;17.40;50.60;;;;;;5014480;28;20453;-89
2021/09/02 04:00:14;;;;;;;7.80;5.60;;;17.10;49.70;;;;;;5014532;28;20457;-89
2021/09/02 04:02:41;;;;;;;8.50;5.70;;;16.70;50.10;;;;;;5014853;28;20875;-89
2021/09/02 04:05:09;;;;;;;12.03;6.30;;;16.80;53.10;;;;;;5016449;28;20533;-89
2021/09/02 04:07:36;;;;;;;11.97;5.63;;;17.30;52.30;;;;;;5016181;28;20550;-89
2021/09/02 04:10:03;;;;;;;7.77;5.87;;;17.50;53.30;;;;;;5015580;28;20453;-89
2021/09/02 04:12:30;;;;;;;10.17;6.97;;;17.60;51.50;;;;;;5017139;28;20497;-89
2021/09/02 04:14:59;;;;;;;6.80;5.70;;;17.60;51.00;;;;;;5014633;28;20914;-89
2021/09/02 04:17:25;;;;;;;8.83;6.20;;;17.70;52.60;;;;;;5014854;28;20454;-89
2021/09/02 04:19:52;;;;;;;6.57;4.87;;;18.00;49.60;;;;;;5014751;28;20465;-89
2021/09/02 04:22:19;;;;;;;8.20;5.50;;;18.00;51.40;;;;;;5014470;28;20489;-89
2021/09/02 04:24:46;;;;;;;14.93;5.97;;;18.20;51.20;;;;;;5015182;28;20485;-89
2021/09/02 04:27:14;;;;;;;6.87;5.43;;;18.00;51.40;;;;;;5015045;28;20497;-89
2021/09/02 04:29:42;;;;;;;9.73;5.93;;;17.90;50.60;;;;;;5015097;28;20456;-89
2021/09/02 04:32:10;;;;;;;7.47;5.53;;;17.40;48.00;;;;;;5015343;28;20461;-89
2021/09/02 04:34:38;;;;;;;8.60;6.83;;;17.10;50.60;;;;;;5015260;28;20453;-89
2021/09/02 04:37:08;;;;;;;13.10;6.20;;;17.00;50.80;;;;;;5019889;28;20525;-89
2021/09/02 04:39:37;;;;;;;6.53;5.30;;;16.90;52.30;;;;;;5027715;28;20542;-88
2021/09/02 04:42:05;;;;;;;15.47;6.40;;;17.10;51.50;;;;;;5028309;28;20484;-89
2021/09/02 04:44:32;;;;;;;7.60;5.60;;;17.30;52.00;;;;;;5027326;28;20442;-89
2021/09/02 04:46:58;;;;;;;6.80;5.57;;;17.60;51.70;;;;;;5020173;28;20438;-89
2021/09/02 04:49:27;;;;;;;8.73;5.63;;;17.40;50.10;;;;;;5015361;28;20489;-89
2021/09/02 04:51:54;;;;;;;6.40;4.83;;;17.60;51.80;;;;;;5014039;28;20469;-89
2021/09/02 04:54:21;;;;;;;7.50;4.80;;;17.60;52.40;;;;;;5013500;28;20501;-90
2021/09/02 04:56:48;;;;;;;7.17;5.20;;;17.50;51.20;;;;;;5013434;28;20556;-90
2021/09/02 04:59:15;;;;;;;7.17;5.50;;;17.60;51.20;;;;;;5014776;28;20478;-89
2021/09/02 05:01:42;;;;;;;9.00;5.23;;;17.70;51.80;;;;;;5013316;28;20511;-89
2021/09/02 05:04:09;;;;;;;5.30;4.40;;;17.90;52.00;;;;;;5019043;28;20936;-89
2021/09/02 05:06:37;;;;;;;7.03;5.03;;;18.00;49.80;;;;;;5033087;28;20470;-89
2021/09/02 05:09:07;;;;;;;6.83;5.20;;;17.80;49.40;;;;;;5030138;28;20470;-89
2021/09/02 05:11:34;;;;;;;6.20;4.60;;;17.90;51.00;;;;;;5031931;28;20524;-89
2021/09/02 05:14:01;;;;;;;5.93;5.00;;;18.00;51.30;;;;;;5032708;28;20438;-89
2021/09/02 05:16:28;;;;;;;7.23;5.30;;;18.00;50.90;;;;;;5032988;28;20454;-89
2021/09/02 05:18:55;;;;;;;5.90;4.17;;;18.10;50.80;;;;;;5031948;28;20446;-89
2021/09/02 05:21:22;;;;;;;4.70;4.37;;;18.10;50.70;;;;;;5016990;28;20470;-89
2021/09/02 05:23:50;;;;;;;6.07;4.47;;;18.20;50.50;;;;;;5016468;28;20481;-89
2021/09/02 05:26:17;;;;;;;7.57;5.13;;;18.10;50.90;;;;;;5016633;28;20437;-89
2021/09/02 05:28:44;;;;;;;5.00;4.60;;;18.10;50.30;;;;;;5015957;28;20955;-89
2021/09/02 05:31:11;;;;;;;5.30;4.97;;;18.10;52.80;;;;;;5015747;28;20466;-89
2021/09/02 05:33:38;;;;;;;4.83;4.13;;;19.10;52.50;;;;;;5015599;28;20520;-89
2021/09/02 05:36:05;;;;;;;6.73;4.57;;;19.30;46.00;;;;;;5016017;28;20437;-89
2021/09/02 05:38:32;;;;;;;8.20;4.40;;;19.80;47.90;;;;;;5016007;28;20430;-89
2021/09/02 05:41:00;;;;;;;5.93;4.43;;;20.20;44.70;;;;;;5020201;28;20466;-89
2021/09/02 05:43:27;;;;;;;4.97;4.00;;;20.30;42.80;;;;;;5038244;28;20517;-89
2021/09/02 05:45:56;;;;;;;8.83;5.47;;;20.70;44.00;;;;;;5020933;28;20470;-89
2021/09/02 05:48:23;;;;;;;8.10;4.73;;;21.10;40.90;;;;;;5016099;28;20505;-89
2021/09/02 05:50:52;;;;;;;5.60;3.90;;;21.70;40.50;;;;;;5026177;28;20450;-89
2021/09/02 05:53:19;;;;;;;4.80;4.10;;;22.10;38.90;;;;;;5030000;28;20442;-89
2021/09/02 05:55:48;;;;;;;12.63;4.33;;;22.80;37.10;;;;;;5029909;28;20454;-89
2021/09/02 05:58:16;;;;;;;6.30;4.67;;;23.60;36.00;;;;;;5031293;28;20501;-89
2021/09/02 06:00:43;;;;;;;9.70;3.33;;;23.60;36.10;;;;;;5031596;28;20442;-89
2021/09/02 06:03:10;;;;;;;11.67;3.97;;;24.20;33.60;;;;;;5031562;28;20498;-88
2021/09/02 06:05:37;;;;;;;8.00;4.10;;;24.00;33.50;;;;;;5023764;28;20446;-89
2021/09/02 06:08:04;;;;;;;6.87;4.37;;;24.40;33.70;;;;;;5015636;28;20446;-89
2021/09/02 06:10:33;;;;;;;5.23;3.90;;;24.80;32.40;;;;;;5015164;28;20528;-89
2021/09/02 06:13:01;;;;;;;4.33;3.60;;;25.00;32.00;;;;;;5015294;28;20458;-90
2021/09/02 06:15:29;;;;;;;5.77;3.70;;;25.00;32.00;;;;;;5014891;28;20448;-89
2021/09/02 06:17:57;;;;;;;7.70;3.80;;;24.90;32.30;;;;;;5015282;28;21011;-89
2021/09/02 06:20:25;;;;;;;6.03;4.00;;;25.20;31.40;;;;;;5032319;28;20446;-88
2021/09/02 06:22:52;;;;;;;4.67;3.40;;;25.20;31.50;;;;;;5029773;28;20482;-90
2021/09/02 06:25:19;;;;;;;4.97;3.33;;;25.50;31.50;;;;;;5016376;28;20500;-89
2021/09/02 06:27:46;;;;;;;3.80;3.20;;;26.00;29.90;;;;;;5016160;28;20490;-89
2021/09/02 06:30:14;;;;;;;4.43;3.30;;;25.60;30.90;;;;;;5015673;28;20883;-90
2021/09/02 06:32:42;;;;;;;6.90;3.77;;;26.30;31.20;;;;;;5015421;28;20516;-90
2021/09/02 06:35:10;;;;;;;6.63;3.70;;;26.60;29.50;;;;;;5015676;28;20486;-90
2021/09/02 06:37:37;;;;;;;5.17;3.33;;;26.50;29.40;;;;;;5016591;28;20514;-89
2021/09/02 06:40:05;;;;;;;5.23;3.73;;;26.30;29.80;;;;;;5015761;28;20446;-90
2021/09/02 06:42:32;;;;;;;4.47;3.20;;;26.30;30.30;;;;;;5015370;28;20529;-89
2021/09/02 06:44:59;;;;;;;4.40;3.23;;;26.80;30.70;;;;;;5015450;28;20456;-89
2021/09/02 06:47:26;;;;;;;5.57;3.50;;;27.60;28.90;;;;;;5016157;28;20442;-89
2021/09/02 06:49:54;;;;;;;4.40;3.00;;;27.90;28.50;;;;;;5019742;28;20446;-90
2021/09/02 06:52:21;;;;;;;3.30;3.03;;;27.60;28.90;;;;;;5014315;28;20559;-87
2021/09/02 06:54:48;;;;;;;3.40;3.13;;;27.30;29.40;;;;;;5014785;28;20505;-90
2021/09/02 06:57:15;;;;;;;4.30;3.40;;;28.20;28.40;;;;;;5013904;28;20496;-90
2021/09/02 06:59:42;;;;;;;6.00;3.80;;;28.40;27.70;;;;;;5014860;28;20496;-87
2021/09/02 07:02:09;;;;;;;6.90;4.53;;;28.00;28.20;;;;;;5014313;28;20479;-87
2021/09/02 07:04:35;;;;;;;4.83;3.60;;;27.90;27.80;;;;;;5014911;28;20998;-87
2021/09/02 07:07:04;;;;;;;5.57;4.03;;;28.20;28.00;;;;;;5014350;28;20634;-87
2021/09/02 07:09:31;;;;;;;4.80;3.90;;;29.30;27.20;;;;;;5013947;28;20541;-88
2021/09/02 07:11:59;;;;;;;7.57;4.70;;;29.50;26.70;;;;;;5013461;28;20956;-87
2021/09/02 07:14:26;;;;;;;5.60;3.97;;;29.50;26.30;;;;;;5013815;28;20562;-87
2021/09/02 07:16:53;;;;;;;6.97;4.63;;;29.50;26.60;;;;;;5013580;28;20438;-88
2021/09/02 07:19:19;;;;;;;7.37;4.70;;;29.40;26.30;;;;;;5013324;28;20457;-88
2021/09/02 07:21:46;;;;;;;7.77;4.90;;;29.00;26.70;;;;;;5013341;28;21050;-88
2021/09/02 07:24:15;;;;;;;5.73;4.83;;;29.20;26.70;;;;;;5014544;28;20478;-88
2021/09/02 07:26:42;;;;;;;9.00;6.03;;;29.30;25.70;;;;;;5013739;28;20438;-88
2021/09/02 07:29:09;;;;;;;11.20;6.13;;;29.70;25.30;;;;;;5015438;28;20795;-88
2021/09/02 07:31:37;;;;;;;9.47;6.70;;;29.30;26.30;;;;;;5013855;28;20561;-88
2021/09/02 07:34:04;;;;;;;11.80;6.53;;;29.60;25.90;;;;;;5013909;28;20453;-88
2021/09/02 07:36:34;;;;;;;9.20;5.83;;;29.50;25.70;;;;;;5014515;28;20439;-88
2021/09/02 07:39:02;;;;;;;8.30;6.40;;;29.50;25.30;;;;;;5014018;28;20444;-88
2021/09/02 07:41:30;;;;;;;16.80;6.27;;;29.00;26.00;;;;;;5013643;28;20454;-89
2021/09/02 07:43:57;;;;;;;9.30;6.53;;;28.80;26.20;;;;;;5012839;28;20586;-88
2021/09/02 07:46:27;;;;;;;10.40;6.43;;;28.40;26.80;;;;;;5012924;28;20987;-89
2021/09/02 07:48:54;;;;;;;8.53;6.57;;;28.60;27.40;;;;;;5014375;28;20840;-88
2021/09/02 07:51:21;;;;;;;9.73;6.37;;;29.20;26.70;;;;;;5014016;28;20553;-88
2021/09/02 07:53:48;;;;;;;9.17;6.00;;;29.30;25.80;;;;;;5013750;28;20481;-88
2021/09/02 07:56:18;;;;;;;11.80;6.73;;;29.70;25.70;;;;;;5013887;28;20529;-88
2021/09/02 07:58:46;;;;;;;21.57;6.00;;;28.80;25.80;;;;;;5013187;28;20458;-88
2021/09/02 08:01:15;;;;;;;8.83;6.67;;;29.40;26.20;;;;;;5012595;28;20458;-88
2021/09/02 08:03:42;;;;;;;8.90;6.20;;;30.20;25.50;;;;;;5011458;28;20573;-88
2021/09/02 08:06:09;;;;;;;9.77;6.30;;;30.40;24.90;;;;;;5013366;28;20434;-88
2021/09/02 08:08:36;;;;;;;8.90;6.33;;;30.00;25.40;;;;;;5012516;28;20529;-88
2021/09/02 08:11:05;;;;;;;13.43;6.60;;;29.90;25.20;;;;;;5012676;28;20474;-88
2021/09/02 08:13:32;;;;;;;7.90;5.53;;;29.30;26.00;;;;;;5013350;28;20442;-88
2021/09/02 08:16:01;;;;;;;11.73;6.40;;;28.50;27.00;;;;;;5013016;28;20508;-88
2021/09/02 08:18:28;;;;;;;10.70;6.63;;;28.80;27.20;;;;;;5013057;28;20450;-88
2021/09/02 08:20:55;;;;;;;10.93;6.40;;;29.40;26.30;;;;;;5013560;28;20458;-88
2021/09/02 08:23:22;;;;;;;12.23;6.53;;;28.70;26.80;;;;;;5013243;28;20631;-88
2021/09/02 08:25:49;;;;;;;9.47;6.63;;;29.20;26.70;;;;;;5014115;28;20525;-88
2021/09/02 08:28:16;;;;;;;18.93;7.10;;;28.80;26.90;;;;;;5013015;28;20892;-88
2021/09/02 08:30:43;;;;;;;9.40;6.50;;;27.40;28.80;;;;;;5011386;28;20453;-87
2021/09/02 08:33:11;;;;;;;16.93;8.40;;;27.70;29.00;;;;;;5013185;28;20446;-88
2021/09/02 08:35:38;;;;;;;18.93;7.93;;;28.20;28.40;;;;;;5013199;28;20455;-88
2021/09/02 08:38:07;;;;;;;12.23;7.00;;;28.30;28.20;;;;;;5015023;28;20489;-88
2021/09/02 08:40:38;;;;;;;11.10;7.80;;;28.00;28.40;;;;;;5016566;28;20442;-87
2021/09/02 08:43:05;;;;;;;11.07;7.60;;;28.20;27.90;;;;;;5016560;28;20473;-88
2021/09/02 08:45:35;;;;;;;16.80;7.33;;;28.20;28.40;;;;;;5016988;28;20477;-88
2021/09/02 08:48:02;;;;;;;13.70;8.63;;;28.30;28.20;;;;;;5017262;28;20470;-87
2021/09/02 08:50:32;;;;;;;14.20;8.70;;;28.10;28.40;;;;;;5016803;28;20485;-88
2021/09/02 08:52:59;;;;;;;14.07;8.03;;;27.50;28.90;;;;;;5016470;28;20557;-87
2021/09/02 08:55:26;;;;;;;11.60;7.30;;;27.10;29.20;;;;;;5016076;28;20506;-88
2021/09/02 08:57:55;;;;;;;20.80;7.77;;;26.70;30.00;;;;;;5016274;28;20528;-87
2021/09/02 09:00:23;;;;;;;13.43;8.10;;;26.20;30.70;;;;;;5019497;28;20481;-88
2021/09/02 09:02:59;;;;;;;12.20;9.10;;;25.70;31.80;;;;;;5016747;28;20492;-87
2021/09/02 09:05:27;;;;;;;19.13;9.00;;;24.80;34.10;;;;;;5016911;28;20518;-88
2021/09/02 09:07:56;;;;;;;18.83;8.33;;;24.20;34.70;;;;;;5016700;28;21011;-88
2021/09/02 09:10:34;;;;;;;17.00;8.87;;;24.30;34.70;;;;;;5017743;28;20450;-88
2021/09/02 09:13:04;;;;;;;13.00;9.60;;;24.40;34.40;;;;;;5017347;28;20458;-88
2021/09/02 09:15:33;;;;;;;19.17;8.50;;;23.80;35.90;;;;;;5017002;28;20885;-88
2021/09/02 09:18:16;;;;;;;12.13;8.33;;;23.40;36.80;;;;;;5016419;28;20456;-88
2021/09/02 09:20:43;;;;;;;12.03;8.00;;;23.70;37.40;;;;;;5015949;28;20889;-88
2021/09/02 09:23:12;;;;;;;13.60;8.87;;;23.80;36.20;;;;;;5017928;28;20838;-88
2021/09/02 09:25:39;;;;;;;19.60;8.23;;;23.60;36.80;;;;;;5017135;28;20871;-88
2021/09/02 09:28:07;;;;;;;12.27;8.70;;;23.00;38.00;;;;;;5018903;28;20472;-88
2021/09/02 09:30:38;;;;;;;15.67;7.83;;;22.10;40.30;;;;;;5017444;28;20441;-88
2021/09/02 09:33:10;;;;;;;18.13;8.63;;;21.90;40.30;;;;;;5017280;28;20458;-88
2021/09/02 09:35:39;;;;;;;12.43;8.30;;;21.10;42.30;;;;;;5018274;28;20462;-87
2021/09/02 09:38:08;;;;;;;15.60;8.90;;;21.10;41.80;;;;;;5030755;28;20446;-87
2021/09/02 09:40:37;;;;;;;18.83;7.80;;;21.40;42.00;;;;;;5021284;28;20450;-88
2021/09/02 09:43:09;;;;;;;13.23;8.53;;;21.40;42.50;;;;;;5018311;28;20524;-88
2021/09/02 09:45:47;;;;;;;12.30;8.27;;;22.20;40.90;;;;;;5018485;28;20471;-88
2021/09/02 09:48:36;;;;;;;10.63;7.13;;;21.90;41.50;;;;;;5017653;28;20516;-88
2021/09/02 09:51:09;;;;;;;12.53;8.00;;;21.90;41.40;;;;;;5017581;28;20458;-88
2021/09/02 09:53:37;;;;;;;11.53;7.17;;;22.00;41.00;;;;;;5017225;28;20470;-88
2021/09/02 09:56:06;;;;;;;11.43;7.10;;;22.20;40.50;;;;;;5017155;28;20797;-88
2021/09/02 09:58:33;;;;;;;14.43;7.93;;;22.20;41.30;;;;;;5016693;28;20485;-88
2021/09/02 10:01:01;;;;;;;9.93;6.87;;;22.00;40.80;;;;;;5021505;28;20572;-88
2021/09/02 10:03:30;;;;;;;11.50;7.33;;;22.20;41.40;;;;;;5022602;28;20485;-88
2021/09/02 10:06:00;;;;;;;18.80;7.23;;;22.40;40.70;;;;;;5021955;28;20450;-88
2021/09/02 10:08:28;;;;;;;9.30;6.63;;;22.60;39.50;;;;;;5026588;28;20450;-88
2021/09/02 10:10:55;;;;;;;13.00;7.43;;;22.70;39.90;;;;;;5021194;28;20508;-88
2021/09/02 10:13:27;;;;;;;20.13;7.73;;;22.60;40.80;;;;;;5018395;28;20525;-88
2021/09/02 10:15:54;;;;;;;16.43;7.77;;;22.60;40.80;;;;;;5016949;28;20492;-88
2021/09/02 10:18:21;;;;;;;16.50;7.57;;;23.30;40.00;;;;;;5015623;28;20461;-88
2021/09/02 10:20:49;;;;;;;18.33;6.50;;;23.40;39.80;;;;;;5016090;28;20439;-88
2021/09/02 10:23:25;;;;;;;15.13;7.17;;;22.90;39.90;;;;;;5016748;28;20482;-88
2021/09/02 10:26:00;;;;;;;15.07;6.90;;;22.60;41.10;;;;;;5019506;28;20506;-87
2021/09/02 10:28:32;;;;;;;14.87;7.20;;;23.10;40.10;;;;;;5026453;28;20520;-88
2021/09/02 10:31:01;;;;;;;13.90;7.87;;;23.40;40.30;;;;;;5023337;28;20470;-87
2021/09/02 10:33:37;;;;;;;14.00;7.20;;;23.20;39.50;;;;;;5015783;28;20551;-88
2021/09/02 10:36:41;;;;;;;11.90;7.30;;;23.60;39.40;;;;;;5015649;28;20583;-88
2021/09/02 10:39:08;;;;;;;10.17;6.97;;;23.30;39.80;;;;;;5015500;28;20461;-88
2021/09/02 10:41:49;;;;;;;11.57;7.60;;;23.50;39.80;;;;;;5016099;28;20481;-88
2021/09/02 10:44:20;;;;;;;13.07;7.13;;;24.10;38.80;;;;;;5022066;28;20477;-88
2021/09/02 10:46:49;;;;;;;15.00;7.10;;;24.40;38.20;;;;;;5037365;28;20430;-87
2021/09/02 10:49:27;;;;;;;9.43;7.33;;;24.70;37.20;;;;;;5017547;28;20434;-88
2021/09/02 10:51:56;;;;;;;11.93;7.87;;;24.40;38.10;;;;;;5015432;28;20450;-88
2021/09/02 10:54:30;;;;;;;13.60;7.20;;;24.60;36.90;;;;;;5015378;28;20446;-88
2021/09/02 10:57:05;;;;;;;7.03;5.60;;;25.00;35.50;;;;;;5015302;28;20951;-88
2021/09/02 10:59:42;;;;;;;8.20;6.07;;;24.90;34.20;;;;;;5015516;28;20903;-87
2021/09/02 11:02:10;;;;;;;11.43;5.20;;;25.10;33.90;;;;;;5015153;28;20866;-88
2021/09/02 11:04:38;;;;;;;10.53;5.47;;;25.00;31.80;;;;;;5015790;28;20474;-88
2021/09/02 11:07:06;;;;;;;8.60;5.37;;;25.00;32.00;;;;;;5016143;28;20451;-88
2021/09/02 11:09:34;;;;;;;8.00;5.03;;;24.80;31.70;;;;;;5015783;28;20516;-87
2021/09/02 11:12:02;;;;;;;7.63;5.20;;;24.90;31.30;;;;;;5013992;28;20510;-88
2021/09/02 11:14:29;;;;;;;9.90;5.20;;;24.80;29.70;;;;;;5015021;28;20454;-88
2021/09/02 11:16:57;;;;;;;11.83;5.70;;;24.60;31.00;;;;;;5015751;28;20541;-87
2021/09/02 11:19:33;;;;;;;8.40;4.73;;;24.40;31.50;;;;;;5017300;28;20442;-88
2021/09/02 11:22:07;;;;;;;6.53;4.97;;;24.60;30.50;;;;;;5015789;28;20487;-87
2021/09/02 11:24:42;;;;;;;6.10;4.70;;;24.90;30.00;;;;;;5015241;28;20970;-87
2021/09/02 11:27:10;;;;;;;11.57;6.00;;;24.80;30.30;;;;;;5025865;28;20449;-87
2021/09/02 11:29:38;;;;;;;6.93;4.93;;;24.70;32.10;;;;;;5036072;28;20438;-88
2021/09/02 11:32:10;;;;;;;7.97;4.67;;;25.30;32.60;;;;;;5015464;28;20493;-87
2021/09/02 11:34:37;;;;;;;8.60;4.80;;;25.50;29.90;;;;;;5014558;28;20492;-88
2021/09/02 11:37:35;;;;;;;9.07;4.90;;;25.50;29.70;;;;;;5015191;28;20482;-92
2021/09/02 11:40:07;;;;;;;7.37;5.10;;;25.70;29.20;;;;;;5016296;28;20533;-92
2021/09/02 11:42:52;;;;;;;7.27;5.40;;;25.40;28.90;;;;;;5039287;23;20912;-92
2021/09/02 11:45:20;;;;;;;9.43;5.50;;;25.30;30.10;;;;;;5036069;28;20473;-92
2021/09/02 11:47:50;;;;;;;7.87;5.20;;;25.00;29.90;;;;;;5037949;28;20811;-91
2021/09/02 11:50:27;;;;;;;10.23;4.97;;;25.20;30.00;;;;;;5036536;28;20457;-91
2021/09/02 11:52:58;;;;;;;11.93;5.77;;;25.70;29.90;;;;;;5035759;28;20556;-91
2021/09/02 11:55:30;;;;;;;12.20;5.10;;;25.80;29.70;;;;;;5036002;28;20460;-91
2021/09/02 11:57:59;;;;;;;7.17;4.83;;;25.50;28.80;;;;;;5036664;28;20456;-92
2021/09/02 12:03:22;;;;;;;7.93;4.93;;;25.40;29.00;;;;;;5034192;28;20470;-92
2021/09/02 12:05:56;;;;;;;6.00;4.30;;;25.30;30.00;;;;;;5036985;28;20469;-92
2021/09/02 12:08:57;;;;;;;6.57;4.83;;;25.70;29.70;;;;;;5035922;28;20488;-92
2021/09/02 12:11:27;;;;;;;7.90;4.67;;;26.20;28.20;;;;;;5098302;22;20484;-90
2021/09/02 12:13:56;;;;;;;5.97;4.60;;;26.20;28.10;;;;;;5047110;28;20441;-92
2021/09/02 12:16:32;;;;;;;7.30;5.23;;;26.10;27.80;;;;;;5039754;28;20451;-92
2021/09/02 12:19:00;;;;;;;8.40;5.40;;;26.20;28.50;;;;;;5038253;28;20414;-91
2021/09/02 12:21:30;;;;;;;6.70;4.60;;;25.90;28.00;;;;;;5037954;28;20477;-91
2021/09/02 12:23:59;;;;;;;8.00;5.37;;;26.10;28.10;;;;;;5038361;28;20469;-91
2021/09/02 12:26:44;;;;;;;8.20;5.17;;;25.50;30.20;;;;;;5037782;28;20914;-91
2021/09/02 12:29:13;;;;;;;8.33;5.20;;;25.20;28.40;;;;;;5038339;28;20429;-92
2021/09/02 12:31:40;;;;;;;9.67;5.13;;;24.80;29.70;;;;;;5037933;28;20476;-92
2021/09/02 12:34:09;;;;;;;5.10;4.37;;;24.80;29.80;;;;;;5037883;28;20468;-92
2021/09/02 12:36:37;;;;;;;11.90;5.30;;;25.30;29.50;;;;;;5038075;28;20468;-92
2021/09/02 12:39:29;;;;;;;9.83;4.97;;;25.30;28.70;;;;;;5038560;28;20449;-92
2021/09/02 12:42:08;;;;;;;8.40;4.37;;;24.90;30.30;;;;;;5038113;28;20449;-92
2021/09/02 12:44:36;;;;;;;6.70;5.03;;;25.00;29.50;;;;;;5038125;28;20473;-92
2021/09/02 12:47:07;;;;;;;7.70;4.97;;;25.20;29.20;;;;;;5038236;28;20449;-91
2021/09/02 12:49:46;;;;;;;7.37;4.97;;;25.40;28.90;;;;;;5042881;28;20511;-91
2021/09/02 12:52:19;;;;;;;6.93;5.37;;;25.00;29.60;;;;;;5059273;28;20457;-92
2021/09/02 12:55:10;;;;;;;10.43;5.00;;;24.60;29.90;;;;;;5059576;28;20472;-91